Main page
METAR-TAF:

METAR-TAF

Airports :

Beijing, China

Beijing Capital International Airport

latitude: 39-56N, longitude: 116-17E, elevation: 55 m

Current weather observation

The report was made 22 minutes ago, at 13:30 UTC
Wind 2 kt from variable directions
Temperature 26°C
Humidity 89%
Pressure 1007 hPa
Visibility 10 km or more
no clouds below 1500 m and no cumulonimbus

METAR: ZBAA 231330Z VRB01MPS CAVOK 26/24 Q1007 NOSIG

Time: 21:52 (13:52 UTC)

Forecast

The report was made 4 hours and 22 minutes ago, at 09:30 UTC
Forecast valid from 23 at 12 UTC to 24 at 12 UTC
Wind 8 kt from the Northeast
Visibility 10 km or more
no clouds below 1500 m and no cumulonimbus
Becoming
from 23 at 23 UTC to 23 at 24 UTC
Wind 12 kt from the Northwest with gusts up to 25 kt

TAF: ZBAA 230930Z 2312/2412 04004MPS CAVOK TX31/2407Z TN20/2321Z BECMG 2323/2324 32006G13MPS

Weather observations and forecasts of more than 4000 airports (METAR and TAF reports).

The available stations are represented by yellow and red dots on the map.

Hover mouse over dot to see the name of the station.

Then click to see weather observations and forecasts.

To change the map : click on the green buttons with a black cross to zoom in, on the green button with a dash to zoom out, or on the green arrows for adjacent maps.


METAR-TAF: